createdAt,value
2017-10-21T00:00:23.645Z,4.20
2017-10-21T00:02:51.961Z,3.80
2017-10-21T00:05:20.305Z,3.97
2017-10-21T00:07:48.632Z,4.10
2017-10-21T00:10:16.954Z,4.00
2017-10-21T00:12:45.267Z,3.50
2017-10-21T00:15:13.594Z,4.30
2017-10-21T00:17:41.895Z,4.47
2017-10-21T00:20:10.990Z,4.13
2017-10-21T00:22:39.304Z,3.93
2017-10-21T00:25:07.637Z,4.17
2017-10-21T00:27:36.706Z,3.93
2017-10-21T00:30:05.086Z,3.23
2017-10-21T00:32:33.406Z,3.83
2017-10-21T00:35:01.736Z,2.80
2017-10-21T00:37:30.035Z,2.43
2017-10-21T00:39:58.353Z,2.87
2017-10-21T00:42:26.659Z,2.70
2017-10-21T00:44:54.982Z,3.53
2017-10-21T00:47:24.055Z,3.43
2017-10-21T00:49:53.163Z,3.43
2017-10-21T00:52:22.241Z,3.20
2017-10-21T00:54:50.564Z,3.20
2017-10-21T00:57:18.870Z,2.80
2017-10-21T00:59:47.212Z,2.57
2017-10-21T01:02:15.549Z,2.60
2017-10-21T01:04:43.878Z,2.10
2017-10-21T01:07:12.205Z,2.87
2017-10-21T01:09:40.531Z,2.50
2017-10-21T01:12:08.839Z,3.00
2017-10-21T01:14:37.191Z,2.70
2017-10-21T01:17:05.497Z,2.70
2017-10-21T01:19:33.813Z,2.63
2017-10-21T01:22:02.121Z,2.50
2017-10-21T01:24:31.205Z,2.63
2017-10-21T01:26:59.593Z,2.40
2017-10-21T01:29:28.688Z,2.60
2017-10-21T01:31:57.012Z,2.33
2017-10-21T01:34:25.341Z,2.93
2017-10-21T01:36:54.416Z,3.13
2017-10-21T01:39:22.740Z,3.10
2017-10-21T01:41:51.049Z,2.53
2017-10-21T01:44:19.378Z,2.77
2017-10-21T01:46:48.447Z,2.50
2017-10-21T01:49:16.778Z,2.30
2017-10-21T01:51:45.089Z,2.27
2017-10-21T01:54:13.413Z,2.10
2017-10-21T01:56:41.718Z,2.60
2017-10-21T01:59:10.053Z,2.30
2017-10-21T02:01:39.130Z,2.73
2017-10-21T02:04:07.457Z,2.53
2017-10-21T02:06:35.778Z,2.33
2017-10-21T02:09:04.131Z,2.23
2017-10-21T02:11:32.427Z,2.20
2017-10-21T02:14:00.769Z,2.67
2017-10-21T02:16:29.090Z,2.20
2017-10-21T02:18:57.446Z,2.70
2017-10-21T02:21:25.783Z,2.70
2017-10-21T02:23:54.121Z,3.10
2017-10-21T02:26:22.448Z,2.37
2017-10-21T02:28:51.536Z,2.40
2017-10-21T02:31:20.622Z,2.80
2017-10-21T02:33:49.751Z,2.10
2017-10-21T02:36:18.078Z,2.40
2017-10-21T02:38:46.461Z,2.00
2017-10-21T02:41:14.782Z,2.30
2017-10-21T02:43:43.118Z,2.93
2017-10-21T02:46:11.469Z,2.50
2017-10-21T02:48:39.769Z,2.33
2017-10-21T02:51:08.103Z,2.17
2017-10-21T02:53:36.410Z,2.77
2017-10-21T02:56:04.765Z,2.13
2017-10-21T02:58:33.086Z,2.77
2017-10-21T03:01:01.418Z,2.70
2017-10-21T03:03:29.752Z,2.50
2017-10-21T03:05:58.094Z,2.43
2017-10-21T03:08:26.415Z,2.40
2017-10-21T03:10:54.753Z,2.80
2017-10-21T03:13:23.064Z,3.73
2017-10-21T03:15:51.398Z,1.90
2017-10-21T03:18:19.707Z,2.47
2017-10-21T03:20:48.039Z,2.20
2017-10-21T03:23:16.343Z,2.00
2017-10-21T03:25:44.676Z,2.23
2017-10-21T03:28:13.743Z,2.33
2017-10-21T03:30:42.063Z,2.40
2017-10-21T03:33:11.148Z,2.40
2017-10-21T03:35:40.320Z,2.00
2017-10-21T03:38:08.641Z,2.47
2017-10-21T03:40:37.002Z,2.50
2017-10-21T03:43:06.074Z,2.07
2017-10-21T03:45:34.394Z,2.00
2017-10-21T03:48:02.710Z,2.80
2017-10-21T03:50:31.025Z,2.10
2017-10-21T03:52:59.330Z,2.70
2017-10-21T03:55:28.565Z,2.60
2017-10-21T03:57:56.856Z,3.10
2017-10-21T04:00:25.192Z,1.90
2017-10-21T04:02:53.512Z,2.33
2017-10-21T04:05:22.397Z,2.43
2017-10-21T04:07:50.697Z,1.87
2017-10-21T04:10:19.024Z,2.10
2017-10-21T04:12:47.356Z,2.23
2017-10-21T04:15:15.686Z,2.10
2017-10-21T04:17:43.993Z,2.53
2017-10-21T04:20:12.313Z,2.20
2017-10-21T04:22:40.649Z,1.77
2017-10-21T04:25:08.973Z,2.50
2017-10-21T04:27:38.042Z,2.40
2017-10-21T04:30:06.354Z,2.23
2017-10-21T04:32:37.346Z,2.70
2017-10-21T04:35:05.675Z,2.70
2017-10-21T04:37:33.983Z,2.37
2017-10-21T04:40:02.314Z,3.50
2017-10-21T04:42:31.381Z,2.67
2017-10-21T04:44:59.708Z,2.13
2017-10-21T04:47:28.782Z,2.50
2017-10-21T04:50:01.366Z,2.53
2017-10-21T04:52:30.435Z,3.50
2017-10-21T04:54:58.761Z,2.87
2017-10-21T04:57:27.064Z,2.60
2017-10-21T04:59:57.335Z,3.10
2017-10-21T05:02:25.644Z,2.57
2017-10-21T05:04:53.973Z,2.57
2017-10-21T05:07:22.271Z,2.53
2017-10-21T05:09:50.589Z,2.30
2017-10-21T05:12:18.889Z,3.10
2017-10-21T05:14:47.224Z,2.77
2017-10-21T05:17:16.293Z,3.00
2017-10-21T05:19:44.626Z,2.40
2017-10-21T05:22:12.926Z,2.63
2017-10-21T05:24:41.254Z,2.40
2017-10-21T05:27:10.339Z,3.00
2017-10-21T05:29:38.909Z,3.20
2017-10-21T05:32:07.216Z,2.90
2017-10-21T05:34:36.313Z,2.87
2017-10-21T05:37:04.623Z,2.93
2017-10-21T05:39:32.953Z,3.23
2017-10-21T05:42:02.051Z,2.97
2017-10-21T05:44:31.124Z,3.07
2017-10-21T05:46:59.454Z,3.10
2017-10-21T05:49:27.768Z,2.83
2017-10-21T05:51:56.087Z,2.50
2017-10-21T05:54:25.157Z,3.23
2017-10-21T05:56:54.364Z,3.10
2017-10-21T05:59:22.666Z,3.47
2017-10-21T06:01:51.770Z,2.37
2017-10-21T06:04:20.070Z,3.27
2017-10-21T06:06:48.393Z,3.80
2017-10-21T06:09:16.710Z,3.63
2017-10-21T06:11:45.034Z,3.53
2017-10-21T06:14:13.348Z,2.87
2017-10-21T06:16:42.449Z,3.30
2017-10-21T06:19:11.525Z,3.07
2017-10-21T06:21:39.866Z,2.50
2017-10-21T06:24:08.165Z,2.53
2017-10-21T06:26:36.499Z,2.40
2017-10-21T06:29:04.797Z,2.80
2017-10-21T06:34:33.584Z,2.53
2017-10-21T06:37:01.913Z,2.00
2017-10-21T06:39:30.213Z,2.90
2017-10-21T06:41:58.545Z,2.90
2017-10-21T06:44:26.849Z,2.90
2017-10-21T06:46:55.187Z,2.40
2017-10-21T06:49:23.505Z,2.37
2017-10-21T06:51:51.818Z,3.03
2017-10-21T06:54:20.900Z,2.50
2017-10-21T06:56:49.997Z,3.23
2017-10-21T06:59:18.302Z,2.80
2017-10-21T07:01:46.634Z,3.77
2017-10-21T07:04:14.967Z,7.83
2017-10-21T07:06:43.307Z,8.80
2017-10-21T07:09:12.388Z,21.20
2017-10-21T07:11:40.722Z,6.00
2017-10-21T07:14:09.034Z,6.47
2017-10-21T07:16:37.380Z,5.43
2017-10-21T07:19:05.691Z,5.70
2017-10-21T07:21:34.022Z,6.70
2017-10-21T07:24:02.350Z,5.27
2017-10-21T07:26:30.683Z,5.93
2017-10-21T07:28:58.996Z,7.40
2017-10-21T07:31:27.313Z,5.10
2017-10-21T07:33:56.424Z,4.87
2017-10-21T07:36:24.765Z,4.60
2017-10-21T07:38:53.075Z,4.50
2017-10-21T07:41:22.198Z,3.43
2017-10-21T07:43:50.522Z,2.73
2017-10-21T07:46:18.838Z,2.97
2017-10-21T07:48:47.900Z,2.30
2017-10-21T07:51:16.246Z,2.00
2017-10-21T07:53:44.549Z,2.43
2017-10-21T07:56:12.879Z,2.80
2017-10-21T07:58:41.196Z,2.90
2017-10-21T08:01:09.527Z,3.67
2017-10-21T08:03:38.609Z,3.03
2017-10-21T08:06:07.709Z,7.60
2017-10-21T08:08:36.806Z,5.43
2017-10-21T08:11:05.928Z,6.90
2017-10-21T08:13:35.403Z,6.80
2017-10-21T08:16:04.508Z,4.53
2017-10-21T08:18:33.590Z,7.00
2017-10-21T08:21:02.698Z,7.07
2017-10-21T08:23:31.782Z,7.37
2017-10-21T08:26:00.890Z,5.40
2017-10-21T08:28:29.967Z,5.90
2017-10-21T08:30:58.308Z,5.50
2017-10-21T08:33:26.622Z,5.57
2017-10-21T08:35:54.954Z,6.00
2017-10-21T08:38:23.278Z,7.83
2017-10-21T08:40:51.613Z,7.90
2017-10-21T08:43:19.933Z,9.00
2017-10-21T08:45:48.287Z,7.07
2017-10-21T08:48:16.598Z,6.20
2017-10-21T08:50:44.940Z,8.43
2017-10-21T08:53:13.257Z,5.57
2017-10-21T08:55:41.592Z,6.30
2017-10-21T08:58:11.053Z,5.40
2017-10-21T09:00:40.164Z,4.90
2017-10-21T09:03:08.494Z,6.00
2017-10-21T09:05:36.855Z,4.07
2017-10-21T09:08:05.167Z,4.77
2017-10-21T09:10:33.506Z,3.50
2017-10-21T09:13:01.866Z,2.90
2017-10-21T09:15:30.175Z,4.13
2017-10-21T09:17:58.526Z,3.43
2017-10-21T09:20:26.834Z,3.53
2017-10-21T09:22:55.164Z,3.87
2017-10-21T09:25:24.236Z,3.73
2017-10-21T09:27:52.566Z,3.77
2017-10-21T09:30:20.878Z,3.63
2017-10-21T09:32:49.216Z,3.20
2017-10-21T09:35:18.303Z,4.10
2017-10-21T09:37:46.625Z,3.83
2017-10-21T09:40:14.946Z,3.80
2017-10-21T09:42:44.046Z,3.37
2017-10-21T09:45:13.131Z,3.90
2017-10-21T09:47:42.226Z,4.07
2017-10-21T09:50:10.553Z,4.00
2017-10-21T09:52:38.883Z,3.00
2017-10-21T09:55:07.217Z,4.10
2017-10-21T09:57:35.566Z,3.70
2017-10-21T10:00:03.872Z,7.00
2017-10-21T10:02:32.224Z,4.20
2017-10-21T10:05:00.535Z,5.00
2017-10-21T10:07:28.911Z,3.97
2017-10-21T10:09:57.223Z,4.37
2017-10-21T10:12:25.530Z,4.27
2017-10-21T10:14:53.869Z,4.03
2017-10-21T10:17:22.181Z,3.73
2017-10-21T10:19:51.268Z,4.17
2017-10-21T10:22:20.337Z,4.30
2017-10-21T10:24:48.674Z,4.17
2017-10-21T10:27:16.981Z,3.83
2017-10-21T10:29:45.309Z,4.60
2017-10-21T10:32:13.626Z,3.97
2017-10-21T10:34:41.955Z,4.10
2017-10-21T10:37:11.021Z,3.70
2017-10-21T10:39:39.366Z,4.37
2017-10-21T10:42:07.676Z,3.47
2017-10-21T10:44:35.981Z,3.80
2017-10-21T10:47:04.316Z,3.90
2017-10-21T10:49:32.622Z,3.70
2017-10-21T10:52:00.952Z,3.40
2017-10-21T10:54:29.265Z,3.50
2017-10-21T10:56:57.606Z,4.13
2017-10-21T10:59:25.910Z,3.93
2017-10-21T11:01:54.244Z,3.10
2017-10-21T11:04:23.305Z,3.80
2017-10-21T11:06:51.639Z,3.40
2017-10-21T11:09:19.940Z,3.33
2017-10-21T11:11:48.281Z,3.27
2017-10-21T11:14:17.394Z,6.00
2017-10-21T11:16:45.734Z,3.30
2017-10-21T11:19:14.043Z,3.40
2017-10-21T11:21:42.364Z,3.00
2017-10-21T11:24:10.699Z,3.53
2017-10-21T11:26:39.018Z,3.07
2017-10-21T11:29:07.363Z,3.30
2017-10-21T11:31:35.686Z,2.90
2017-10-21T11:34:04.019Z,2.83
2017-10-21T11:36:32.314Z,3.20
2017-10-21T11:39:00.634Z,3.30
2017-10-21T11:41:28.950Z,3.13
2017-10-21T11:43:57.281Z,3.13
2017-10-21T11:46:25.596Z,2.97
2017-10-21T11:48:53.935Z,2.90
2017-10-21T11:51:22.252Z,3.30
2017-10-21T11:53:51.366Z,2.77
2017-10-21T11:56:19.685Z,3.37
2017-10-21T11:58:48.019Z,2.80
2017-10-21T12:01:16.361Z,3.47
2017-10-21T12:03:44.673Z,3.40
2017-10-21T12:06:13.003Z,4.03
2017-10-21T12:08:41.322Z,4.17
2017-10-21T12:11:10.627Z,2.83
2017-10-21T12:13:38.969Z,5.23
2017-10-21T12:16:07.290Z,2.70
2017-10-21T12:18:35.593Z,3.07
2017-10-21T12:21:03.940Z,3.10
2017-10-21T12:23:33.014Z,3.20
2017-10-21T12:26:02.160Z,3.20
2017-10-21T12:28:30.482Z,3.60
2017-10-21T12:30:58.799Z,3.23
2017-10-21T12:33:27.140Z,3.30
2017-10-21T12:35:55.457Z,3.00
2017-10-21T12:38:23.783Z,3.20
2017-10-21T12:40:52.124Z,3.70
2017-10-21T12:43:20.453Z,3.10
2017-10-21T12:45:48.763Z,3.67
2017-10-21T12:48:17.853Z,3.40
2017-10-21T12:50:46.933Z,3.13
2017-10-21T12:53:16.029Z,3.00
2017-10-21T12:55:44.329Z,2.83
2017-10-21T12:58:12.690Z,3.77
2017-10-21T13:00:40.990Z,3.10
2017-10-21T13:03:09.329Z,2.77
2017-10-21T13:05:37.644Z,2.50
2017-10-21T13:08:06.870Z,3.60
2017-10-21T13:10:35.223Z,4.30
2017-10-21T13:13:03.537Z,3.60
2017-10-21T13:15:31.880Z,3.43
2017-10-21T13:18:00.185Z,3.30
2017-10-21T13:20:28.560Z,3.43
2017-10-21T13:22:56.894Z,3.90
2017-10-21T13:25:25.227Z,3.70
2017-10-21T13:27:53.531Z,3.60
2017-10-21T13:30:21.861Z,3.83
2017-10-21T13:32:50.172Z,3.80
2017-10-21T13:35:18.510Z,4.17
2017-10-21T13:37:46.836Z,4.57
2017-10-21T13:40:15.161Z,4.53
2017-10-21T13:42:44.259Z,4.47
2017-10-21T13:45:13.347Z,5.43
2017-10-21T13:47:42.432Z,5.10
2017-10-21T13:50:10.746Z,7.13
2017-10-21T13:52:39.094Z,4.90
2017-10-21T13:55:08.172Z,5.80
2017-10-21T13:57:36.495Z,4.10
2017-10-21T14:00:04.793Z,5.00
2017-10-21T14:02:33.155Z,4.50
2017-10-21T14:05:01.476Z,5.33
2017-10-21T14:07:29.881Z,5.73
2017-10-21T14:09:58.951Z,5.83
2017-10-21T14:12:30.254Z,6.47
2017-10-21T14:14:58.561Z,5.40
2017-10-21T14:17:26.867Z,6.10
2017-10-21T14:19:55.186Z,7.30
2017-10-21T14:22:23.503Z,5.70
2017-10-21T14:24:51.834Z,5.73
2017-10-21T14:27:20.146Z,5.10
2017-10-21T14:29:48.480Z,7.33
2017-10-21T14:32:16.813Z,6.57
2017-10-21T14:34:45.147Z,6.53
2017-10-21T14:37:14.237Z,6.57
2017-10-21T14:39:43.367Z,6.07
2017-10-21T14:42:11.699Z,5.57
2017-10-21T14:44:40.007Z,5.10
2017-10-21T14:47:08.343Z,6.50
2017-10-21T14:49:36.648Z,6.97
2017-10-21T14:52:05.747Z,7.10
2017-10-21T14:54:34.819Z,7.57
2017-10-21T14:57:03.159Z,7.53
2017-10-21T14:59:31.471Z,8.63
2017-10-21T15:01:59.797Z,7.60
2017-10-21T15:04:28.101Z,9.73
2017-10-21T15:06:56.457Z,7.57
2017-10-21T15:09:24.771Z,12.87
2017-10-21T15:11:53.117Z,8.40
2017-10-21T15:14:21.429Z,10.63
2017-10-21T15:16:49.757Z,12.57
2017-10-21T15:19:18.086Z,14.83
2017-10-21T15:21:46.424Z,10.70
2017-10-21T15:24:14.738Z,8.60
2017-10-21T15:26:43.061Z,9.20
2017-10-21T15:29:12.158Z,9.50
2017-10-21T15:31:41.230Z,7.07
2017-10-21T15:34:09.569Z,7.60
2017-10-21T15:36:37.883Z,7.50
2017-10-21T15:39:06.210Z,8.50
2017-10-21T15:41:34.512Z,7.50
2017-10-21T15:44:02.861Z,8.27
2017-10-21T15:46:31.163Z,8.20
2017-10-21T15:48:59.487Z,8.13
2017-10-21T15:51:27.792Z,7.87
2017-10-21T15:53:56.132Z,8.80
2017-10-21T15:56:24.462Z,7.93
2017-10-21T15:58:52.815Z,8.30
2017-10-21T16:01:21.899Z,10.40
2017-10-21T16:03:51.023Z,9.33
2017-10-21T16:06:19.338Z,8.93
2017-10-21T16:08:47.647Z,8.70
2017-10-21T16:11:15.983Z,9.50
2017-10-21T16:13:44.306Z,10.30
2017-10-21T16:16:12.659Z,10.03
2017-10-21T16:18:40.972Z,10.40
2017-10-21T16:21:10.075Z,10.40
2017-10-21T16:23:39.156Z,10.10
2017-10-21T16:26:07.587Z,9.90
2017-10-21T16:28:36.157Z,10.17
2017-10-21T16:31:04.502Z,10.90
2017-10-21T16:33:32.813Z,8.70
2017-10-21T16:36:01.150Z,15.10
2017-10-21T16:38:29.459Z,11.80
2017-10-21T16:40:58.563Z,13.10
2017-10-21T16:43:26.878Z,11.83
2017-10-21T16:45:55.213Z,14.17
2017-10-21T16:48:23.533Z,13.50
2017-10-21T16:50:51.868Z,11.90
2017-10-21T16:53:20.971Z,11.50
2017-10-21T16:55:49.309Z,12.40
2017-10-21T16:58:17.622Z,12.23
2017-10-21T17:00:46.719Z,11.30
2017-10-21T17:03:15.797Z,10.97
2017-10-21T17:05:44.878Z,10.43
2017-10-21T17:08:13.226Z,10.50
2017-10-21T17:10:41.551Z,10.50
2017-10-21T17:13:10.659Z,15.20
2017-10-21T17:15:39.751Z,11.97
2017-10-21T17:18:08.847Z,9.73
2017-10-21T17:20:37.927Z,8.87
2017-10-21T17:23:06.263Z,10.03
2017-10-21T17:25:34.584Z,9.13
2017-10-21T17:28:02.927Z,9.77
2017-10-21T17:30:31.241Z,8.93
2017-10-21T17:32:59.565Z,8.70
2017-10-21T17:35:27.878Z,9.53
2017-10-21T17:37:56.245Z,14.73
2017-10-21T17:40:24.595Z,11.27
2017-10-21T17:42:52.927Z,9.33
2017-10-21T17:45:21.277Z,11.97
2017-10-21T17:47:49.634Z,8.10
2017-10-21T17:50:18.014Z,6.50
2017-10-21T17:52:46.339Z,6.33
2017-10-21T17:55:14.684Z,4.10
2017-10-21T17:57:43.020Z,3.80
2017-10-21T18:00:12.126Z,3.20
2017-10-21T18:02:41.215Z,3.60
2017-10-21T18:05:10.334Z,2.53
2017-10-21T18:07:38.678Z,3.60
2017-10-21T18:10:07.812Z,3.63
2017-10-21T18:12:36.128Z,4.03
2017-10-21T18:15:04.473Z,3.90
2017-10-21T18:17:32.799Z,3.33
2017-10-21T18:20:01.150Z,3.90
2017-10-21T18:22:29.485Z,4.47
2017-10-21T18:24:58.572Z,3.73
2017-10-21T18:27:26.918Z,4.03
2017-10-21T18:29:55.270Z,3.97
2017-10-21T18:32:23.625Z,4.20
2017-10-21T18:34:52.734Z,2.80
2017-10-21T18:37:21.066Z,2.90
2017-10-21T18:39:49.379Z,2.73
2017-10-21T18:42:18.513Z,2.90
2017-10-21T18:44:47.621Z,2.63
2017-10-21T18:47:16.010Z,1.60
2017-10-21T18:49:44.328Z,1.50
2017-10-21T18:52:13.410Z,1.53
2017-10-21T18:54:41.765Z,1.67
2017-10-21T18:57:10.146Z,2.80
2017-10-21T19:00:00.458Z,3.23
2017-10-21T19:02:53.409Z,2.10
2017-10-21T19:05:30.617Z,2.10
2017-10-21T19:07:59.261Z,2.57
2017-10-21T19:10:30.125Z,2.70
2017-10-21T19:12:59.128Z,1.97
2017-10-21T19:15:27.967Z,2.30
2017-10-21T19:17:56.806Z,2.17
2017-10-21T19:20:26.094Z,2.30
2017-10-21T19:22:55.346Z,3.10
2017-10-21T19:25:24.667Z,2.33
2017-10-21T19:27:53.023Z,1.83
2017-10-21T19:30:21.434Z,1.70
2017-10-21T19:32:49.781Z,1.53
2017-10-21T19:35:18.180Z,1.77
2017-10-21T19:37:46.553Z,2.07
2017-10-21T19:40:14.907Z,1.80
2017-10-21T19:42:44.062Z,1.90
2017-10-21T19:45:12.410Z,1.80
2017-10-21T19:47:40.772Z,2.03
2017-10-21T19:50:09.126Z,1.77
2017-10-21T19:52:37.520Z,2.40
2017-10-21T19:55:06.640Z,1.90
2017-10-21T19:57:35.056Z,1.93
2017-10-21T20:00:03.512Z,3.77
2017-10-21T20:02:36.491Z,4.20
2017-10-21T20:05:05.015Z,4.47
2017-10-21T20:07:34.225Z,3.40
2017-10-21T20:10:03.377Z,2.37
2017-10-21T20:12:31.824Z,2.57
2017-10-21T20:15:00.945Z,2.00
2017-10-21T20:17:29.315Z,2.17
2017-10-21T20:19:57.690Z,1.87
2017-10-21T20:22:26.067Z,2.00
2017-10-21T20:24:54.421Z,1.90
2017-10-21T20:27:22.754Z,2.60
2017-10-21T20:29:51.094Z,2.13
2017-10-21T20:32:20.190Z,2.40
2017-10-21T20:34:49.315Z,2.80
2017-10-21T20:37:17.642Z,1.83
2017-10-21T20:39:46.006Z,2.33
2017-10-21T20:42:14.324Z,1.87
2017-10-21T20:44:43.461Z,4.43
2017-10-21T20:47:11.799Z,7.70
2017-10-21T20:49:40.946Z,5.20
2017-10-21T20:52:09.281Z,2.43
2017-10-21T20:54:38.404Z,1.90
2017-10-21T20:57:06.752Z,2.60
2017-10-21T20:59:35.851Z,2.60
2017-10-21T21:02:04.203Z,2.33
2017-10-21T21:04:32.543Z,2.47
2017-10-21T21:07:00.889Z,2.10
2017-10-21T21:09:29.994Z,2.20
2017-10-21T21:11:59.110Z,2.03
2017-10-21T21:14:27.458Z,2.60
2017-10-21T21:16:56.575Z,2.87
2017-10-21T21:19:24.900Z,2.90
2017-10-21T21:21:53.245Z,2.70
2017-10-21T21:24:21.577Z,3.10
2017-10-21T21:26:49.945Z,2.20
2017-10-21T21:29:18.272Z,2.50
2017-10-21T21:31:46.641Z,2.70
2017-10-21T21:34:15.728Z,2.80
2017-10-21T21:36:44.890Z,2.77
2017-10-21T21:39:13.215Z,2.50
2017-10-21T21:41:41.525Z,1.80
2017-10-21T21:44:09.952Z,2.20
2017-10-21T21:46:39.034Z,2.43
2017-10-21T21:49:07.426Z,2.17
2017-10-21T21:51:35.762Z,1.70
2017-10-21T21:54:04.113Z,2.40
2017-10-21T21:56:32.439Z,2.83
2017-10-21T21:59:00.801Z,2.13
2017-10-21T22:01:29.125Z,2.47
2017-10-21T22:03:57.499Z,1.80
2017-10-21T22:06:25.831Z,1.63
2017-10-21T22:08:54.197Z,1.87
2017-10-21T22:11:22.516Z,2.13
2017-10-21T22:13:50.885Z,1.63
2017-10-21T22:16:19.253Z,2.33
2017-10-21T22:18:47.570Z,2.23
2017-10-21T22:21:15.934Z,1.93
2017-10-21T22:23:44.294Z,2.23
2017-10-21T22:26:12.646Z,2.07
2017-10-21T22:28:40.963Z,2.00
2017-10-21T22:31:09.293Z,2.60
2017-10-21T22:33:37.631Z,1.90
2017-10-21T22:36:05.970Z,2.17
2017-10-21T22:38:34.298Z,2.10
2017-10-21T22:41:02.665Z,1.90
2017-10-21T22:43:30.986Z,2.40
2017-10-21T22:45:59.320Z,3.03
2017-10-21T22:48:27.654Z,2.37
2017-10-21T22:50:55.983Z,2.53
2017-10-21T22:53:24.339Z,2.13
2017-10-21T22:55:52.667Z,1.50
2017-10-21T22:58:21.774Z,1.90
2017-10-21T23:00:50.095Z,1.97
2017-10-21T23:03:18.465Z,2.33
2017-10-21T23:05:46.846Z,2.23
2017-10-21T23:08:15.970Z,2.03
2017-10-21T23:10:44.280Z,1.93
2017-10-21T23:13:12.637Z,2.20
2017-10-21T23:15:40.967Z,1.67
2017-10-21T23:18:09.359Z,1.77
2017-10-21T23:20:37.700Z,1.90
2017-10-21T23:23:06.066Z,1.63
2017-10-21T23:25:35.156Z,2.00
2017-10-21T23:28:03.679Z,1.83
2017-10-21T23:30:32.011Z,2.00
2017-10-21T23:33:00.356Z,1.97
2017-10-21T23:35:28.665Z,2.10
2017-10-21T23:37:56.983Z,2.13
2017-10-21T23:40:25.326Z,2.33
2017-10-21T23:42:53.638Z,1.77
2017-10-21T23:45:21.992Z,2.67
2017-10-21T23:47:50.313Z,1.93
2017-10-21T23:50:18.702Z,2.07
2017-10-21T23:52:47.015Z,1.70
2017-10-21T23:55:15.346Z,2.20
2017-10-21T23:57:55.643Z,1.63
